sensor_id;sensor_type;location;lat;lon;timestamp;P1;durP1;ratioP1;P2;durP2;ratioP2
21420;SDS011;10871;50.144;8.428;2023-08-06T00:00:15;6.13;;;5.05;;
21420;SDS011;10871;50.144;8.428;2023-08-06T00:02:41;8.25;;;5.10;;
21420;SDS011;10871;50.144;8.428;2023-08-06T00:05:07;7.53;;;5.10;;
21420;SDS011;10871;50.144;8.428;2023-08-06T00:07:34;5.20;;;4.70;;
21420;SDS011;10871;50.144;8.428;2023-08-06T00:10:00;8.18;;;5.35;;
21420;SDS011;10871;50.144;8.428;2023-08-06T00:12:27;6.60;;;4.57;;
21420;SDS011;10871;50.144;8.428;2023-08-06T00:14:53;8.23;;;5.38;;
21420;SDS011;10871;50.144;8.428;2023-08-06T00:17:20;6.88;;;4.72;;
21420;SDS011;10871;50.144;8.428;2023-08-06T00:19:46;9.63;;;5.60;;
21420;SDS011;10871;50.144;8.428;2023-08-06T00:22:13;6.13;;;5.40;;
21420;SDS011;10871;50.144;8.428;2023-08-06T00:24:39;6.80;;;5.40;;
21420;SDS011;10871;50.144;8.428;2023-08-06T00:27:06;7.28;;;6.40;;
21420;SDS011;10871;50.144;8.428;2023-08-06T00:29:32;10.00;;;6.40;;
21420;SDS011;10871;50.144;8.428;2023-08-06T00:31:58;10.32;;;5.93;;
21420;SDS011;10871;50.144;8.428;2023-08-06T00:34:25;8.02;;;6.05;;
21420;SDS011;10871;50.144;8.428;2023-08-06T00:36:51;8.70;;;6.18;;
21420;SDS011;10871;50.144;8.428;2023-08-06T00:39:17;7.45;;;6.13;;
21420;SDS011;10871;50.144;8.428;2023-08-06T00:41:44;10.23;;;6.85;;
21420;SDS011;10871;50.144;8.428;2023-08-06T00:44:10;8.77;;;7.68;;
21420;SDS011;10871;50.144;8.428;2023-08-06T00:46:38;11.25;;;8.70;;
21420;SDS011;10871;50.144;8.428;2023-08-06T00:49:05;11.23;;;9.27;;
21420;SDS011;10871;50.144;8.428;2023-08-06T00:51:32;11.50;;;10.23;;
21420;SDS011;10871;50.144;8.428;2023-08-06T00:53:58;12.95;;;10.70;;
21420;SDS011;10871;50.144;8.428;2023-08-06T00:56:25;12.40;;;9.23;;
21420;SDS011;10871;50.144;8.428;2023-08-06T00:58:51;13.75;;;9.13;;
21420;SDS011;10871;50.144;8.428;2023-08-06T01:01:18;10.10;;;8.88;;
21420;SDS011;10871;50.144;8.428;2023-08-06T01:03:44;17.13;;;10.52;;
21420;SDS011;10871;50.144;8.428;2023-08-06T01:06:11;14.75;;;10.70;;
21420;SDS011;10871;50.144;8.428;2023-08-06T01:13:36;16.50;;;11.52;;
21420;SDS011;10871;50.144;8.428;2023-08-06T01:16:04;15.68;;;12.35;;
21420;SDS011;10871;50.144;8.428;2023-08-06T01:18:32;15.57;;;12.98;;
21420;SDS011;10871;50.144;8.428;2023-08-06T01:21:00;15.63;;;11.98;;
21420;SDS011;10871;50.144;8.428;2023-08-06T01:23:26;15.07;;;11.85;;
21420;SDS011;10871;50.144;8.428;2023-08-06T01:28:22;15.98;;;12.77;;
21420;SDS011;10871;50.144;8.428;2023-08-06T01:30:54;18.02;;;12.40;;
21420;SDS011;10871;50.144;8.428;2023-08-06T01:33:21;15.65;;;12.68;;
21420;SDS011;10871;50.144;8.428;2023-08-06T01:35:49;17.48;;;14.25;;
21420;SDS011;10871;50.144;8.428;2023-08-06T01:38:15;21.40;;;16.08;;
21420;SDS011;10871;50.144;8.428;2023-08-06T01:40:42;18.80;;;16.17;;
21420;SDS011;10871;50.144;8.428;2023-08-06T01:43:08;21.92;;;15.00;;
21420;SDS011;10871;50.144;8.428;2023-08-06T01:45:35;21.10;;;16.20;;
21420;SDS011;10871;50.144;8.428;2023-08-06T01:48:01;24.33;;;17.77;;
21420;SDS011;10871;50.144;8.428;2023-08-06T01:50:27;19.98;;;16.92;;
21420;SDS011;10871;50.144;8.428;2023-08-06T01:52:54;22.67;;;17.65;;
21420;SDS011;10871;50.144;8.428;2023-08-06T01:55:20;21.48;;;17.17;;
21420;SDS011;10871;50.144;8.428;2023-08-06T01:57:46;19.77;;;16.13;;
21420;SDS011;10871;50.144;8.428;2023-08-06T02:00:13;23.75;;;19.17;;
21420;SDS011;10871;50.144;8.428;2023-08-06T02:02:39;23.73;;;17.92;;
21420;SDS011;10871;50.144;8.428;2023-08-06T02:05:08;23.33;;;18.08;;
21420;SDS011;10871;50.144;8.428;2023-08-06T02:07:35;22.52;;;18.98;;
21420;SDS011;10871;50.144;8.428;2023-08-06T02:10:02;20.35;;;17.05;;
21420;SDS011;10871;50.144;8.428;2023-08-06T02:12:28;20.67;;;17.98;;
21420;SDS011;10871;50.144;8.428;2023-08-06T02:14:55;21.77;;;17.17;;
21420;SDS011;10871;50.144;8.428;2023-08-06T02:17:21;24.48;;;16.73;;
21420;SDS011;10871;50.144;8.428;2023-08-06T02:19:48;24.13;;;17.63;;
21420;SDS011;10871;50.144;8.428;2023-08-06T02:22:14;20.10;;;14.95;;
21420;SDS011;10871;50.144;8.428;2023-08-06T02:24:40;19.13;;;13.85;;
21420;SDS011;10871;50.144;8.428;2023-08-06T02:27:09;19.42;;;13.02;;
21420;SDS011;10871;50.144;8.428;2023-08-06T02:29:35;17.73;;;12.35;;
21420;SDS011;10871;50.144;8.428;2023-08-06T02:32:03;15.40;;;11.40;;
21420;SDS011;10871;50.144;8.428;2023-08-06T02:34:30;13.25;;;11.82;;
21420;SDS011;10871;50.144;8.428;2023-08-06T02:36:56;17.67;;;12.43;;
21420;SDS011;10871;50.144;8.428;2023-08-06T02:39:22;17.83;;;12.23;;
21420;SDS011;10871;50.144;8.428;2023-08-06T02:41:50;21.30;;;13.35;;
21420;SDS011;10871;50.144;8.428;2023-08-06T02:44:17;21.45;;;13.75;;
21420;SDS011;10871;50.144;8.428;2023-08-06T02:46:46;26.73;;;24.13;;
21420;SDS011;10871;50.144;8.428;2023-08-06T02:49:13;19.45;;;15.50;;
21420;SDS011;10871;50.144;8.428;2023-08-06T02:51:39;24.40;;;15.75;;
21420;SDS011;10871;50.144;8.428;2023-08-06T02:54:05;20.20;;;14.23;;
21420;SDS011;10871;50.144;8.428;2023-08-06T02:56:34;17.77;;;13.43;;
21420;SDS011;10871;50.144;8.428;2023-08-06T02:59:09;20.88;;;13.55;;
21420;SDS011;10871;50.144;8.428;2023-08-06T03:02:04;21.80;;;15.55;;
21420;SDS011;10871;50.144;8.428;2023-08-06T03:04:41;23.23;;;16.40;;
21420;SDS011;10871;50.144;8.428;2023-08-06T03:07:09;20.90;;;15.43;;
21420;SDS011;10871;50.144;8.428;2023-08-06T03:09:45;18.48;;;14.52;;
21420;SDS011;10871;50.144;8.428;2023-08-06T03:12:12;18.90;;;13.07;;
21420;SDS011;10871;50.144;8.428;2023-08-06T03:14:39;16.25;;;12.57;;
21420;SDS011;10871;50.144;8.428;2023-08-06T03:17:07;20.15;;;12.52;;
21420;SDS011;10871;50.144;8.428;2023-08-06T03:19:34;14.30;;;12.15;;
21420;SDS011;10871;50.144;8.428;2023-08-06T03:22:02;14.18;;;10.18;;
21420;SDS011;10871;50.144;8.428;2023-08-06T03:24:32;15.23;;;9.00;;
21420;SDS011;10871;50.144;8.428;2023-08-06T03:26:58;15.32;;;9.38;;
21420;SDS011;10871;50.144;8.428;2023-08-06T03:29:25;15.52;;;9.60;;
21420;SDS011;10871;50.144;8.428;2023-08-06T03:31:52;14.98;;;9.68;;
21420;SDS011;10871;50.144;8.428;2023-08-06T03:34:19;12.60;;;9.50;;
21420;SDS011;10871;50.144;8.428;2023-08-06T03:36:47;14.65;;;9.77;;
21420;SDS011;10871;50.144;8.428;2023-08-06T03:39:14;13.65;;;8.77;;
21420;SDS011;10871;50.144;8.428;2023-08-06T03:41:41;18.55;;;10.20;;
21420;SDS011;10871;50.144;8.428;2023-08-06T03:44:07;13.20;;;9.80;;
21420;SDS011;10871;50.144;8.428;2023-08-06T03:46:34;17.70;;;10.52;;
21420;SDS011;10871;50.144;8.428;2023-08-06T03:49:03;17.27;;;11.63;;
21420;SDS011;10871;50.144;8.428;2023-08-06T03:51:30;20.85;;;13.40;;
21420;SDS011;10871;50.144;8.428;2023-08-06T03:53:56;20.40;;;13.15;;
21420;SDS011;10871;50.144;8.428;2023-08-06T03:56:22;18.58;;;11.48;;
21420;SDS011;10871;50.144;8.428;2023-08-06T03:58:49;19.92;;;10.80;;
21420;SDS011;10871;50.144;8.428;2023-08-06T04:01:16;15.93;;;10.77;;
21420;SDS011;10871;50.144;8.428;2023-08-06T04:03:44;17.80;;;11.55;;
21420;SDS011;10871;50.144;8.428;2023-08-06T04:06:11;16.20;;;10.93;;
21420;SDS011;10871;50.144;8.428;2023-08-06T04:08:38;14.15;;;10.80;;
21420;SDS011;10871;50.144;8.428;2023-08-06T04:11:04;18.75;;;10.20;;
21420;SDS011;10871;50.144;8.428;2023-08-06T04:13:30;14.60;;;10.02;;
21420;SDS011;10871;50.144;8.428;2023-08-06T04:16:00;12.75;;;9.80;;
21420;SDS011;10871;50.144;8.428;2023-08-06T04:18:27;16.10;;;9.00;;
21420;SDS011;10871;50.144;8.428;2023-08-06T04:20:54;14.68;;;9.70;;
21420;SDS011;10871;50.144;8.428;2023-08-06T04:23:21;15.45;;;10.18;;
21420;SDS011;10871;50.144;8.428;2023-08-06T04:25:48;14.98;;;10.20;;
21420;SDS011;10871;50.144;8.428;2023-08-06T04:28:14;14.85;;;9.93;;
21420;SDS011;10871;50.144;8.428;2023-08-06T04:30:40;13.57;;;9.80;;
21420;SDS011;10871;50.144;8.428;2023-08-06T04:33:07;12.80;;;8.10;;
21420;SDS011;10871;50.144;8.428;2023-08-06T04:35:34;10.30;;;6.00;;
21420;SDS011;10871;50.144;8.428;2023-08-06T04:38:01;11.05;;;6.22;;
21420;SDS011;10871;50.144;8.428;2023-08-06T04:40:27;10.82;;;5.35;;
21420;SDS011;10871;50.144;8.428;2023-08-06T04:42:54;10.52;;;4.97;;
21420;SDS011;10871;50.144;8.428;2023-08-06T04:45:20;6.65;;;4.68;;
21420;SDS011;10871;50.144;8.428;2023-08-06T04:47:46;6.28;;;4.68;;
21420;SDS011;10871;50.144;8.428;2023-08-06T04:50:13;8.50;;;5.32;;
21420;SDS011;10871;50.144;8.428;2023-08-06T04:52:39;6.25;;;4.57;;
21420;SDS011;10871;50.144;8.428;2023-08-06T04:55:06;8.38;;;4.60;;
21420;SDS011;10871;50.144;8.428;2023-08-06T04:57:32;12.48;;;4.90;;
21420;SDS011;10871;50.144;8.428;2023-08-06T04:59:59;6.53;;;4.72;;
21420;SDS011;10871;50.144;8.428;2023-08-06T05:02:25;6.93;;;3.83;;
21420;SDS011;10871;50.144;8.428;2023-08-06T05:04:51;9.38;;;4.30;;
21420;SDS011;10871;50.144;8.428;2023-08-06T05:07:18;6.45;;;3.50;;
21420;SDS011;10871;50.144;8.428;2023-08-06T05:09:44;6.63;;;3.42;;
21420;SDS011;10871;50.144;8.428;2023-08-06T05:12:11;6.13;;;3.33;;
21420;SDS011;10871;50.144;8.428;2023-08-06T05:14:37;5.38;;;3.33;;
21420;SDS011;10871;50.144;8.428;2023-08-06T05:17:03;5.57;;;3.33;;
21420;SDS011;10871;50.144;8.428;2023-08-06T05:19:30;7.13;;;3.28;;
21420;SDS011;10871;50.144;8.428;2023-08-06T05:21:57;7.97;;;3.50;;
21420;SDS011;10871;50.144;8.428;2023-08-06T05:24:23;4.45;;;3.20;;
21420;SDS011;10871;50.144;8.428;2023-08-06T05:26:49;5.47;;;2.97;;
21420;SDS011;10871;50.144;8.428;2023-08-06T05:29:16;5.80;;;3.17;;
21420;SDS011;10871;50.144;8.428;2023-08-06T05:31:42;3.85;;;2.80;;
21420;SDS011;10871;50.144;8.428;2023-08-06T05:34:09;5.93;;;3.22;;
21420;SDS011;10871;50.144;8.428;2023-08-06T05:36:35;5.55;;;2.88;;
21420;SDS011;10871;50.144;8.428;2023-08-06T05:39:01;4.35;;;2.83;;
21420;SDS011;10871;50.144;8.428;2023-08-06T05:41:28;5.10;;;2.78;;
21420;SDS011;10871;50.144;8.428;2023-08-06T05:43:54;4.13;;;2.55;;
21420;SDS011;10871;50.144;8.428;2023-08-06T05:46:21;5.00;;;2.80;;
21420;SDS011;10871;50.144;8.428;2023-08-06T05:48:47;5.03;;;2.55;;
21420;SDS011;10871;50.144;8.428;2023-08-06T05:51:14;5.28;;;2.50;;
21420;SDS011;10871;50.144;8.428;2023-08-06T05:53:42;4.20;;;3.05;;
21420;SDS011;10871;50.144;8.428;2023-08-06T05:56:08;3.03;;;2.67;;
21420;SDS011;10871;50.144;8.428;2023-08-06T05:58:35;8.05;;;3.63;;
21420;SDS011;10871;50.144;8.428;2023-08-06T06:01:01;3.80;;;3.08;;
21420;SDS011;10871;50.144;8.428;2023-08-06T06:03:27;3.13;;;2.83;;
21420;SDS011;10871;50.144;8.428;2023-08-06T06:05:54;4.53;;;3.30;;
21420;SDS011;10871;50.144;8.428;2023-08-06T06:08:20;3.50;;;3.20;;
21420;SDS011;10871;50.144;8.428;2023-08-06T06:10:46;3.63;;;3.03;;
21420;SDS011;10871;50.144;8.428;2023-08-06T06:13:13;4.35;;;3.15;;
21420;SDS011;10871;50.144;8.428;2023-08-06T06:15:39;3.35;;;3.05;;
21420;SDS011;10871;50.144;8.428;2023-08-06T06:18:05;3.20;;;2.90;;
21420;SDS011;10871;50.144;8.428;2023-08-06T06:20:32;2.80;;;2.60;;
21420;SDS011;10871;50.144;8.428;2023-08-06T06:22:59;3.95;;;2.60;;
21420;SDS011;10871;50.144;8.428;2023-08-06T06:25:25;2.83;;;2.50;;
21420;SDS011;10871;50.144;8.428;2023-08-06T06:27:52;2.92;;;2.40;;
21420;SDS011;10871;50.144;8.428;2023-08-06T06:30:18;3.28;;;2.25;;
21420;SDS011;10871;50.144;8.428;2023-08-06T06:32:44;2.30;;;2.10;;
21420;SDS011;10871;50.144;8.428;2023-08-06T06:35:12;2.17;;;2.00;;
21420;SDS011;10871;50.144;8.428;2023-08-06T06:37:38;2.38;;;2.10;;
21420;SDS011;10871;50.144;8.428;2023-08-06T06:40:05;2.10;;;2.00;;
21420;SDS011;10871;50.144;8.428;2023-08-06T06:42:31;2.55;;;2.03;;
21420;SDS011;10871;50.144;8.428;2023-08-06T06:45:00;1.90;;;1.80;;
21420;SDS011;10871;50.144;8.428;2023-08-06T06:47:26;2.10;;;1.90;;
21420;SDS011;10871;50.144;8.428;2023-08-06T06:49:53;2.53;;;1.60;;
21420;SDS011;10871;50.144;8.428;2023-08-06T06:52:19;2.10;;;1.90;;
21420;SDS011;10871;50.144;8.428;2023-08-06T06:54:45;2.00;;;1.77;;
21420;SDS011;10871;50.144;8.428;2023-08-06T06:57:12;2.95;;;1.70;;
21420;SDS011;10871;50.144;8.428;2023-08-06T06:59:38;2.00;;;1.90;;
21420;SDS011;10871;50.144;8.428;2023-08-06T07:02:05;2.10;;;2.00;;
21420;SDS011;10871;50.144;8.428;2023-08-06T07:04:32;1.73;;;1.63;;
21420;SDS011;10871;50.144;8.428;2023-08-06T07:06:58;1.65;;;1.55;;
21420;SDS011;10871;50.144;8.428;2023-08-06T07:09:24;1.70;;;1.60;;
21420;SDS011;10871;50.144;8.428;2023-08-06T07:11:51;2.33;;;1.83;;
21420;SDS011;10871;50.144;8.428;2023-08-06T07:14:18;1.95;;;1.38;;
21420;SDS011;10871;50.144;8.428;2023-08-06T07:16:45;2.45;;;1.67;;
21420;SDS011;10871;50.144;8.428;2023-08-06T07:19:11;1.25;;;1.15;;
21420;SDS011;10871;50.144;8.428;2023-08-06T07:21:37;1.50;;;1.40;;
21420;SDS011;10871;50.144;8.428;2023-08-06T07:24:04;1.73;;;1.55;;
21420;SDS011;10871;50.144;8.428;2023-08-06T07:26:30;1.58;;;1.33;;
21420;SDS011;10871;50.144;8.428;2023-08-06T07:28:57;2.05;;;1.88;;
21420;SDS011;10871;50.144;8.428;2023-08-06T07:31:23;1.67;;;1.58;;
21420;SDS011;10871;50.144;8.428;2023-08-06T07:33:49;2.15;;;1.70;;
21420;SDS011;10871;50.144;8.428;2023-08-06T07:36:16;1.70;;;1.60;;
21420;SDS011;10871;50.144;8.428;2023-08-06T07:38:42;2.47;;;2.25;;
21420;SDS011;10871;50.144;8.428;2023-08-06T07:41:09;1.80;;;1.70;;
21420;SDS011;10871;50.144;8.428;2023-08-06T07:43:35;3.22;;;3.03;;
21420;SDS011;10871;50.144;8.428;2023-08-06T07:46:02;2.22;;;2.13;;
21420;SDS011;10871;50.144;8.428;2023-08-06T07:48:29;2.58;;;2.20;;
21420;SDS011;10871;50.144;8.428;2023-08-06T07:50:55;3.40;;;2.00;;
21420;SDS011;10871;50.144;8.428;2023-08-06T07:53:22;5.45;;;1.60;;
21420;SDS011;10871;50.144;8.428;2023-08-06T07:55:52;2.58;;;2.35;;
21420;SDS011;10871;50.144;8.428;2023-08-06T07:58:23;1.80;;;1.70;;
21420;SDS011;10871;50.144;8.428;2023-08-06T08:00:49;2.20;;;1.95;;
21420;SDS011;10871;50.144;8.428;2023-08-06T08:03:16;1.85;;;1.75;;
21420;SDS011;10871;50.144;8.428;2023-08-06T08:05:43;1.80;;;1.70;;
21420;SDS011;10871;50.144;8.428;2023-08-06T08:08:09;1.70;;;1.60;;
21420;SDS011;10871;50.144;8.428;2023-08-06T08:10:36;3.92;;;2.10;;
21420;SDS011;10871;50.144;8.428;2023-08-06T08:13:04;1.60;;;1.50;;
21420;SDS011;10871;50.144;8.428;2023-08-06T08:15:31;1.80;;;1.70;;
21420;SDS011;10871;50.144;8.428;2023-08-06T08:17:58;2.42;;;2.33;;
21420;SDS011;10871;50.144;8.428;2023-08-06T08:20:25;1.30;;;1.20;;
21420;SDS011;10871;50.144;8.428;2023-08-06T08:22:58;1.55;;;1.10;;
21420;SDS011;10871;50.144;8.428;2023-08-06T08:25:25;1.40;;;1.10;;
21420;SDS011;10871;50.144;8.428;2023-08-06T08:27:51;1.77;;;1.10;;
21420;SDS011;10871;50.144;8.428;2023-08-06T08:30:18;2.05;;;1.20;;
21420;SDS011;10871;50.144;8.428;2023-08-06T08:32:44;1.20;;;1.10;;
21420;SDS011;10871;50.144;8.428;2023-08-06T08:35:10;1.90;;;0.98;;
21420;SDS011;10871;50.144;8.428;2023-08-06T08:37:38;2.00;;;1.02;;
21420;SDS011;10871;50.144;8.428;2023-08-06T08:40:06;0.90;;;0.90;;
21420;SDS011;10871;50.144;8.428;2023-08-06T08:42:32;1.40;;;1.00;;
21420;SDS011;10871;50.144;8.428;2023-08-06T08:44:58;1.05;;;0.70;;
21420;SDS011;10871;50.144;8.428;2023-08-06T08:47:25;0.70;;;0.70;;
21420;SDS011;10871;50.144;8.428;2023-08-06T08:49:53;1.00;;;0.70;;
21420;SDS011;10871;50.144;8.428;2023-08-06T08:52:31;0.60;;;0.60;;
21420;SDS011;10871;50.144;8.428;2023-08-06T08:54:59;0.63;;;0.60;;
21420;SDS011;10871;50.144;8.428;2023-08-06T08:57:27;1.38;;;0.93;;
21420;SDS011;10871;50.144;8.428;2023-08-06T08:59:53;0.95;;;0.50;;
21420;SDS011;10871;50.144;8.428;2023-08-06T09:02:20;1.45;;;1.35;;
21420;SDS011;10871;50.144;8.428;2023-08-06T09:04:47;1.13;;;0.55;;
21420;SDS011;10871;50.144;8.428;2023-08-06T09:07:16;1.08;;;1.08;;
21420;SDS011;10871;50.144;8.428;2023-08-06T09:09:44;1.77;;;1.67;;
21420;SDS011;10871;50.144;8.428;2023-08-06T09:12:16;0.70;;;0.70;;
21420;SDS011;10871;50.144;8.428;2023-08-06T09:14:42;0.60;;;0.60;;
21420;SDS011;10871;50.144;8.428;2023-08-06T09:17:09;1.58;;;0.60;;
21420;SDS011;10871;50.144;8.428;2023-08-06T09:19:42;0.68;;;0.60;;
21420;SDS011;10871;50.144;8.428;2023-08-06T09:22:12;1.27;;;0.50;;
21420;SDS011;10871;50.144;8.428;2023-08-06T09:24:41;0.77;;;0.70;;
21420;SDS011;10871;50.144;8.428;2023-08-06T09:27:13;1.20;;;0.47;;
21420;SDS011;10871;50.144;8.428;2023-08-06T09:29:46;0.63;;;0.63;;
21420;SDS011;10871;50.144;8.428;2023-08-06T09:32:12;0.60;;;0.60;;
21420;SDS011;10871;50.144;8.428;2023-08-06T09:34:39;1.10;;;1.00;;
21420;SDS011;10871;50.144;8.428;2023-08-06T09:37:08;1.02;;;0.50;;
21420;SDS011;10871;50.144;8.428;2023-08-06T09:39:34;2.03;;;0.55;;
21420;SDS011;10871;50.144;8.428;2023-08-06T09:42:01;1.20;;;1.10;;
21420;SDS011;10871;50.144;8.428;2023-08-06T09:44:28;1.60;;;1.30;;
21420;SDS011;10871;50.144;8.428;2023-08-06T09:46:55;2.60;;;1.20;;
21420;SDS011;10871;50.144;8.428;2023-08-06T09:49:25;2.15;;;0.80;;
21420;SDS011;10871;50.144;8.428;2023-08-06T09:51:51;0.68;;;0.38;;
21420;SDS011;10871;50.144;8.428;2023-08-06T09:54:22;1.00;;;0.50;;
21420;SDS011;10871;50.144;8.428;2023-08-06T09:56:52;6.35;;;3.10;;
21420;SDS011;10871;50.144;8.428;2023-08-06T09:59:18;4.00;;;2.80;;
21420;SDS011;10871;50.144;8.428;2023-08-06T10:01:45;1.60;;;1.00;;
21420;SDS011;10871;50.144;8.428;2023-08-06T10:04:13;0.45;;;0.45;;
21420;SDS011;10871;50.144;8.428;2023-08-06T10:06:49;0.63;;;0.60;;
21420;SDS011;10871;50.144;8.428;2023-08-06T10:09:16;0.90;;;0.70;;
21420;SDS011;10871;50.144;8.428;2023-08-06T10:11:42;0.73;;;0.47;;
21420;SDS011;10871;50.144;8.428;2023-08-06T10:14:11;2.58;;;0.57;;
21420;SDS011;10871;50.144;8.428;2023-08-06T10:16:39;0.40;;;0.40;;
21420;SDS011;10871;50.144;8.428;2023-08-06T10:24:50;1.27;;;0.60;;
21420;SDS011;10871;50.144;8.428;2023-08-06T10:27:30;0.93;;;0.80;;
21420;SDS011;10871;50.144;8.428;2023-08-06T10:32:48;0.40;;;0.40;;
21420;SDS011;10871;50.144;8.428;2023-08-06T10:37:57;0.60;;;0.60;;
21420;SDS011;10871;50.144;8.428;2023-08-06T10:40:24;0.40;;;0.40;;
21420;SDS011;10871;50.144;8.428;2023-08-06T10:42:52;0.50;;;0.47;;
21420;SDS011;10871;50.144;8.428;2023-08-06T10:45:19;0.40;;;0.40;;
21420;SDS011;10871;50.144;8.428;2023-08-06T10:47:46;1.45;;;0.50;;
21420;SDS011;10871;50.144;8.428;2023-08-06T10:50:14;0.73;;;0.45;;
21420;SDS011;10871;50.144;8.428;2023-08-06T10:52:43;0.43;;;0.43;;
21420;SDS011;10871;50.144;8.428;2023-08-06T10:55:10;1.00;;;0.90;;
21420;SDS011;10871;50.144;8.428;2023-08-06T10:57:37;1.45;;;1.00;;
21420;SDS011;10871;50.144;8.428;2023-08-06T11:00:04;1.05;;;1.05;;
21420;SDS011;10871;50.144;8.428;2023-08-06T11:02:42;0.52;;;0.50;;
21420;SDS011;10871;50.144;8.428;2023-08-06T11:05:09;1.13;;;0.50;;
21420;SDS011;10871;50.144;8.428;2023-08-06T11:07:36;1.70;;;0.73;;
21420;SDS011;10871;50.144;8.428;2023-08-06T11:10:03;0.50;;;0.40;;
21420;SDS011;10871;50.144;8.428;2023-08-06T11:12:30;1.05;;;0.50;;
21420;SDS011;10871;50.144;8.428;2023-08-06T11:14:57;0.50;;;0.50;;
21420;SDS011;10871;50.144;8.428;2023-08-06T11:17:28;0.50;;;0.50;;
21420;SDS011;10871;50.144;8.428;2023-08-06T11:19:54;0.50;;;0.50;;
21420;SDS011;10871;50.144;8.428;2023-08-06T11:22:21;0.52;;;0.43;;
21420;SDS011;10871;50.144;8.428;2023-08-06T11:24:48;1.17;;;0.50;;
21420;SDS011;10871;50.144;8.428;2023-08-06T11:27:15;0.57;;;0.50;;
21420;SDS011;10871;50.144;8.428;2023-08-06T11:29:43;0.55;;;0.50;;
21420;SDS011;10871;50.144;8.428;2023-08-06T11:32:10;1.95;;;1.65;;
21420;SDS011;10871;50.144;8.428;2023-08-06T11:34:38;1.13;;;0.50;;
21420;SDS011;10871;50.144;8.428;2023-08-06T11:37:05;2.80;;;0.70;;
21420;SDS011;10871;50.144;8.428;2023-08-06T11:39:32;3.00;;;1.67;;
21420;SDS011;10871;50.144;8.428;2023-08-06T11:41:59;3.05;;;2.10;;
21420;SDS011;10871;50.144;8.428;2023-08-06T11:44:32;1.92;;;1.80;;
21420;SDS011;10871;50.144;8.428;2023-08-06T11:46:59;1.45;;;0.75;;
21420;SDS011;10871;50.144;8.428;2023-08-06T11:49:44;4.25;;;2.78;;
21420;SDS011;10871;50.144;8.428;2023-08-06T11:52:18;4.35;;;2.33;;
21420;SDS011;10871;50.144;8.428;2023-08-06T11:54:46;3.97;;;2.42;;
21420;SDS011;10871;50.144;8.428;2023-08-06T11:57:13;4.07;;;2.33;;
21420;SDS011;10871;50.144;8.428;2023-08-06T11:59:43;2.47;;;1.40;;
21420;SDS011;10871;50.144;8.428;2023-08-06T12:02:10;3.00;;;1.30;;
21420;SDS011;10871;50.144;8.428;2023-08-06T12:04:57;1.98;;;1.40;;
21420;SDS011;10871;50.144;8.428;2023-08-06T12:07:28;3.35;;;1.85;;
21420;SDS011;10871;50.144;8.428;2023-08-06T12:09:54;3.03;;;1.00;;
21420;SDS011;10871;50.144;8.428;2023-08-06T12:12:21;3.40;;;1.60;;
21420;SDS011;10871;50.144;8.428;2023-08-06T12:14:47;2.10;;;1.27;;
21420;SDS011;10871;50.144;8.428;2023-08-06T12:17:14;1.83;;;0.90;;
21420;SDS011;10871;50.144;8.428;2023-08-06T12:19:40;4.47;;;4.07;;
21420;SDS011;10871;50.144;8.428;2023-08-06T12:22:08;2.78;;;1.23;;
21420;SDS011;10871;50.144;8.428;2023-08-06T12:24:34;1.00;;;0.60;;
21420;SDS011;10871;50.144;8.428;2023-08-06T12:27:01;1.33;;;0.70;;
21420;SDS011;10871;50.144;8.428;2023-08-06T12:29:29;0.47;;;0.47;;
21420;SDS011;10871;50.144;8.428;2023-08-06T12:31:57;0.60;;;0.60;;
21420;SDS011;10871;50.144;8.428;2023-08-06T12:34:24;0.60;;;0.60;;
21420;SDS011;10871;50.144;8.428;2023-08-06T12:36:54;0.80;;;0.80;;
21420;SDS011;10871;50.144;8.428;2023-08-06T12:39:20;1.38;;;0.60;;
21420;SDS011;10871;50.144;8.428;2023-08-06T12:41:47;0.90;;;0.70;;
21420;SDS011;10871;50.144;8.428;2023-08-06T12:44:13;0.60;;;0.60;;
21420;SDS011;10871;50.144;8.428;2023-08-06T12:46:40;1.15;;;0.70;;
21420;SDS011;10871;50.144;8.428;2023-08-06T12:49:06;0.95;;;0.70;;
21420;SDS011;10871;50.144;8.428;2023-08-06T12:51:33;0.60;;;0.60;;
21420;SDS011;10871;50.144;8.428;2023-08-06T12:54:00;1.48;;;0.93;;
21420;SDS011;10871;50.144;8.428;2023-08-06T12:56:26;1.00;;;0.60;;
21420;SDS011;10871;50.144;8.428;2023-08-06T12:58:53;2.17;;;0.65;;
21420;SDS011;10871;50.144;8.428;2023-08-06T13:01:19;0.70;;;0.70;;
21420;SDS011;10871;50.144;8.428;2023-08-06T13:03:46;0.90;;;0.90;;
21420;SDS011;10871;50.144;8.428;2023-08-06T13:06:13;2.00;;;1.13;;
21420;SDS011;10871;50.144;8.428;2023-08-06T13:08:39;1.10;;;1.10;;
21420;SDS011;10871;50.144;8.428;2023-08-06T13:11:07;4.07;;;1.45;;
21420;SDS011;10871;50.144;8.428;2023-08-06T13:13:33;1.17;;;0.60;;
21420;SDS011;10871;50.144;8.428;2023-08-06T13:16:00;1.52;;;0.90;;
21420;SDS011;10871;50.144;8.428;2023-08-06T13:18:27;0.82;;;0.80;;
21420;SDS011;10871;50.144;8.428;2023-08-06T13:20:55;1.85;;;1.75;;
21420;SDS011;10871;50.144;8.428;2023-08-06T13:23:21;1.33;;;1.20;;
21420;SDS011;10871;50.144;8.428;2023-08-06T13:25:48;0.95;;;0.68;;
21420;SDS011;10871;50.144;8.428;2023-08-06T13:28:15;1.48;;;0.55;;
21420;SDS011;10871;50.144;8.428;2023-08-06T13:30:41;1.23;;;0.60;;
21420;SDS011;10871;50.144;8.428;2023-08-06T13:33:09;1.15;;;0.50;;
21420;SDS011;10871;50.144;8.428;2023-08-06T13:35:35;0.73;;;0.70;;
21420;SDS011;10871;50.144;8.428;2023-08-06T13:38:02;1.20;;;0.65;;
21420;SDS011;10871;50.144;8.428;2023-08-06T13:40:31;0.77;;;0.70;;
21420;SDS011;10871;50.144;8.428;2023-08-06T13:42:58;1.67;;;0.63;;
21420;SDS011;10871;50.144;8.428;2023-08-06T13:45:28;1.67;;;0.70;;
21420;SDS011;10871;50.144;8.428;2023-08-06T13:47:55;0.80;;;0.60;;
21420;SDS011;10871;50.144;8.428;2023-08-06T13:50:22;1.98;;;0.80;;
21420;SDS011;10871;50.144;8.428;2023-08-06T13:52:52;0.75;;;0.60;;
21420;SDS011;10871;50.144;8.428;2023-08-06T13:55:19;1.15;;;0.70;;
21420;SDS011;10871;50.144;8.428;2023-08-06T13:57:46;0.85;;;0.70;;
21420;SDS011;10871;50.144;8.428;2023-08-06T14:00:13;0.60;;;0.60;;
21420;SDS011;10871;50.144;8.428;2023-08-06T14:02:41;0.85;;;0.68;;
21420;SDS011;10871;50.144;8.428;2023-08-06T14:05:10;1.58;;;0.52;;
21420;SDS011;10871;50.144;8.428;2023-08-06T14:07:37;3.00;;;0.60;;
21420;SDS011;10871;50.144;8.428;2023-08-06T14:10:04;0.40;;;0.40;;
21420;SDS011;10871;50.144;8.428;2023-08-06T14:12:31;1.80;;;0.80;;
21420;SDS011;10871;50.144;8.428;2023-08-06T14:14:58;2.17;;;0.55;;
21420;SDS011;10871;50.144;8.428;2023-08-06T14:17:25;1.02;;;0.60;;
21420;SDS011;10871;50.144;8.428;2023-08-06T14:19:52;0.60;;;0.60;;
21420;SDS011;10871;50.144;8.428;2023-08-06T14:22:19;3.72;;;0.73;;
21420;SDS011;10871;50.144;8.428;2023-08-06T14:24:46;0.70;;;0.70;;
21420;SDS011;10871;50.144;8.428;2023-08-06T14:27:13;1.00;;;0.60;;
21420;SDS011;10871;50.144;8.428;2023-08-06T14:29:43;1.05;;;0.60;;
21420;SDS011;10871;50.144;8.428;2023-08-06T14:32:13;1.67;;;0.70;;
21420;SDS011;10871;50.144;8.428;2023-08-06T14:34:41;0.50;;;0.50;;
21420;SDS011;10871;50.144;8.428;2023-08-06T14:37:11;0.52;;;0.52;;
21420;SDS011;10871;50.144;8.428;2023-08-06T14:39:38;2.00;;;0.60;;
21420;SDS011;10871;50.144;8.428;2023-08-06T14:42:05;0.57;;;0.50;;
21420;SDS011;10871;50.144;8.428;2023-08-06T14:44:32;1.00;;;0.52;;
21420;SDS011;10871;50.144;8.428;2023-08-06T14:47:00;0.50;;;0.50;;
21420;SDS011;10871;50.144;8.428;2023-08-06T14:49:31;0.68;;;0.50;;
21420;SDS011;10871;50.144;8.428;2023-08-06T14:51:59;1.40;;;1.00;;
21420;SDS011;10871;50.144;8.428;2023-08-06T14:54:29;0.63;;;0.52;;
21420;SDS011;10871;50.144;8.428;2023-08-06T14:56:55;0.50;;;0.50;;
21420;SDS011;10871;50.144;8.428;2023-08-06T14:59:22;0.55;;;0.50;;